sensor_id;sensor_type;location;lat;lon;timestamp;temperature;humidity
26803;DHT22;14378;51.796;5.808;2022-08-18T00:03:13;20.60;99.90
26803;DHT22;14378;51.796;5.808;2022-08-18T00:05:15;20.60;99.90
26803;DHT22;14378;51.796;5.808;2022-08-18T00:07:19;20.50;99.90
26803;DHT22;14378;51.796;5.808;2022-08-18T00:09:21;20.50;99.90
26803;DHT22;14378;51.796;5.808;2022-08-18T00:11:22;20.50;99.90
26803;DHT22;14378;51.796;5.808;2022-08-18T00:13:23;20.60;99.90
26803;DHT22;14378;51.796;5.808;2022-08-18T00:15:25;20.60;99.90
26803;DHT22;14378;51.796;5.808;2022-08-18T00:17:26;20.60;99.90
26803;DHT22;14378;51.796;5.808;2022-08-18T00:19:27;20.60;99.90
26803;DHT22;14378;51.796;5.808;2022-08-18T00:21:28;20.60;99.90
26803;DHT22;14378;51.796;5.808;2022-08-18T00:23:29;20.60;99.90
26803;DHT22;14378;51.796;5.808;2022-08-18T00:25:32;20.60;99.90
26803;DHT22;14378;51.796;5.808;2022-08-18T00:27:33;20.60;99.90
26803;DHT22;14378;51.796;5.808;2022-08-18T00:29:34;20.60;99.90
26803;DHT22;14378;51.796;5.808;2022-08-18T00:31:35;20.60;99.90
26803;DHT22;14378;51.796;5.808;2022-08-18T00:33:36;20.50;99.90
26803;DHT22;14378;51.796;5.808;2022-08-18T00:35:38;20.60;99.90
26803;DHT22;14378;51.796;5.808;2022-08-18T00:37:40;20.50;99.90
26803;DHT22;14378;51.796;5.808;2022-08-18T00:39:41;20.60;99.90
26803;DHT22;14378;51.796;5.808;2022-08-18T00:41:42;20.50;99.90
26803;DHT22;14378;51.796;5.808;2022-08-18T00:43:48;20.50;99.90
26803;DHT22;14378;51.796;5.808;2022-08-18T00:45:50;20.50;99.90
26803;DHT22;14378;51.796;5.808;2022-08-18T00:47:53;20.50;99.90
26803;DHT22;14378;51.796;5.808;2022-08-18T00:49:55;20.50;99.90
26803;DHT22;14378;51.796;5.808;2022-08-18T00:51:57;20.50;99.90
26803;DHT22;14378;51.796;5.808;2022-08-18T00:54:14;20.50;99.90
26803;DHT22;14378;51.796;5.808;2022-08-18T00:56:21;20.50;99.90
26803;DHT22;14378;51.796;5.808;2022-08-18T01:01:53;20.60;99.90
26803;DHT22;14378;51.796;5.808;2022-08-18T01:04:23;20.60;99.90
26803;DHT22;14378;51.796;5.808;2022-08-18T01:07:09;20.60;99.90
26803;DHT22;14378;51.796;5.808;2022-08-18T01:08:49;20.60;99.90
26803;DHT22;14378;51.796;5.808;2022-08-18T01:10:50;20.60;99.90
26803;DHT22;14378;51.796;5.808;2022-08-18T01:12:54;20.60;99.90
26803;DHT22;14378;51.796;5.808;2022-08-18T01:14:55;20.50;99.90
26803;DHT22;14378;51.796;5.808;2022-08-18T01:16:57;20.60;99.90
26803;DHT22;14378;51.796;5.808;2022-08-18T01:19:19;20.60;99.90
26803;DHT22;14378;51.796;5.808;2022-08-18T01:21:44;20.60;99.90
26803;DHT22;14378;51.796;5.808;2022-08-18T01:23:53;20.50;99.90
26803;DHT22;14378;51.796;5.808;2022-08-18T01:25:55;20.50;99.90
26803;DHT22;14378;51.796;5.808;2022-08-18T01:27:59;20.50;99.90
26803;DHT22;14378;51.796;5.808;2022-08-18T01:30:08;20.50;99.90
26803;DHT22;14378;51.796;5.808;2022-08-18T01:32:13;20.50;99.90
26803;DHT22;14378;51.796;5.808;2022-08-18T01:34:20;20.60;99.90
26803;DHT22;14378;51.796;5.808;2022-08-18T01:36:24;20.60;99.90
26803;DHT22;14378;51.796;5.808;2022-08-18T01:38:25;20.60;99.90
26803;DHT22;14378;51.796;5.808;2022-08-18T01:40:27;20.60;99.90
26803;DHT22;14378;51.796;5.808;2022-08-18T01:42:28;20.60;99.90
26803;DHT22;14378;51.796;5.808;2022-08-18T01:44:29;20.60;99.90
26803;DHT22;14378;51.796;5.808;2022-08-18T01:46:33;20.60;99.90
26803;DHT22;14378;51.796;5.808;2022-08-18T01:48:36;20.60;99.90
26803;DHT22;14378;51.796;5.808;2022-08-18T01:50:37;20.60;99.90
26803;DHT22;14378;51.796;5.808;2022-08-18T01:52:39;20.70;99.90
26803;DHT22;14378;51.796;5.808;2022-08-18T01:54:40;20.70;99.90
26803;DHT22;14378;51.796;5.808;2022-08-18T01:56:42;20.70;99.90
26803;DHT22;14378;51.796;5.808;2022-08-18T01:58:44;20.70;99.90
26803;DHT22;14378;51.796;5.808;2022-08-18T02:00:47;20.70;99.90
26803;DHT22;14378;51.796;5.808;2022-08-18T02:02:50;20.70;99.90
26803;DHT22;14378;51.796;5.808;2022-08-18T02:04:52;20.60;99.90
26803;DHT22;14378;51.796;5.808;2022-08-18T02:06:54;20.70;99.90
26803;DHT22;14378;51.796;5.808;2022-08-18T02:08:55;20.70;99.90
26803;DHT22;14378;51.796;5.808;2022-08-18T02:10:56;20.60;99.90
26803;DHT22;14378;51.796;5.808;2022-08-18T02:13:00;20.60;99.90
26803;DHT22;14378;51.796;5.808;2022-08-18T02:15:03;20.60;99.90
26803;DHT22;14378;51.796;5.808;2022-08-18T02:17:06;20.60;99.90
26803;DHT22;14378;51.796;5.808;2022-08-18T02:19:07;20.60;99.90
26803;DHT22;14378;51.796;5.808;2022-08-18T02:21:14;20.60;99.90
26803;DHT22;14378;51.796;5.808;2022-08-18T02:23:17;20.60;99.90
26803;DHT22;14378;51.796;5.808;2022-08-18T02:25:20;20.60;99.90
26803;DHT22;14378;51.796;5.808;2022-08-18T02:30:50;20.50;99.90
26803;DHT22;14378;51.796;5.808;2022-08-18T02:32:50;20.60;99.90
26803;DHT22;14378;51.796;5.808;2022-08-18T02:34:52;20.60;99.90
26803;DHT22;14378;51.796;5.808;2022-08-18T02:36:53;20.60;99.90
26803;DHT22;14378;51.796;5.808;2022-08-18T02:38:54;20.60;99.90
26803;DHT22;14378;51.796;5.808;2022-08-18T02:40:56;20.50;99.90
26803;DHT22;14378;51.796;5.808;2022-08-18T02:42:58;20.50;99.90
26803;DHT22;14378;51.796;5.808;2022-08-18T02:44:59;20.50;99.90
26803;DHT22;14378;51.796;5.808;2022-08-18T02:47:02;20.50;99.90
26803;DHT22;14378;51.796;5.808;2022-08-18T02:49:04;20.50;99.90
26803;DHT22;14378;51.796;5.808;2022-08-18T02:51:14;20.50;99.90
26803;DHT22;14378;51.796;5.808;2022-08-18T02:53:16;20.50;99.90
26803;DHT22;14378;51.796;5.808;2022-08-18T02:55:23;20.50;99.90
26803;DHT22;14378;51.796;5.808;2022-08-18T02:57:26;20.40;99.90
26803;DHT22;14378;51.796;5.808;2022-08-18T02:59:27;20.40;99.90
26803;DHT22;14378;51.796;5.808;2022-08-18T03:01:31;20.40;99.90
26803;DHT22;14378;51.796;5.808;2022-08-18T03:03:34;20.30;99.90
26803;DHT22;14378;51.796;5.808;2022-08-18T03:05:35;20.30;99.90
26803;DHT22;14378;51.796;5.808;2022-08-18T03:07:36;20.40;99.90
26803;DHT22;14378;51.796;5.808;2022-08-18T03:09:37;20.40;99.90
26803;DHT22;14378;51.796;5.808;2022-08-18T03:11:39;20.40;99.90
26803;DHT22;14378;51.796;5.808;2022-08-18T03:13:41;20.30;99.90
26803;DHT22;14378;51.796;5.808;2022-08-18T03:15:42;20.40;99.90
26803;DHT22;14378;51.796;5.808;2022-08-18T03:17:44;20.30;99.90
26803;DHT22;14378;51.796;5.808;2022-08-18T03:19:45;20.40;99.90
26803;DHT22;14378;51.796;5.808;2022-08-18T03:21:46;20.40;99.90
26803;DHT22;14378;51.796;5.808;2022-08-18T03:23:49;20.40;99.90
26803;DHT22;14378;51.796;5.808;2022-08-18T03:25:50;20.40;99.90
26803;DHT22;14378;51.796;5.808;2022-08-18T03:27:52;20.40;99.90
26803;DHT22;14378;51.796;5.808;2022-08-18T03:29:53;20.40;99.90
26803;DHT22;14378;51.796;5.808;2022-08-18T03:31:54;20.50;99.90
26803;DHT22;14378;51.796;5.808;2022-08-18T03:33:56;20.50;99.90
26803;DHT22;14378;51.796;5.808;2022-08-18T03:36:09;20.50;99.90
26803;DHT22;14378;51.796;5.808;2022-08-18T03:38:12;20.50;99.90
26803;DHT22;14378;51.796;5.808;2022-08-18T03:40:13;20.50;99.90
26803;DHT22;14378;51.796;5.808;2022-08-18T03:42:14;20.50;99.90
26803;DHT22;14378;51.796;5.808;2022-08-18T03:44:16;20.50;99.90
26803;DHT22;14378;51.796;5.808;2022-08-18T03:46:18;20.50;99.90
26803;DHT22;14378;51.796;5.808;2022-08-18T03:48:20;20.50;99.90
26803;DHT22;14378;51.796;5.808;2022-08-18T03:50:21;20.50;99.90
26803;DHT22;14378;51.796;5.808;2022-08-18T03:52:25;20.50;99.90
26803;DHT22;14378;51.796;5.808;2022-08-18T03:54:27;20.40;99.90
26803;DHT22;14378;51.796;5.808;2022-08-18T03:56:33;20.40;99.90
26803;DHT22;14378;51.796;5.808;2022-08-18T03:58:34;20.50;99.90
26803;DHT22;14378;51.796;5.808;2022-08-18T04:00:37;20.50;99.90
26803;DHT22;14378;51.796;5.808;2022-08-18T04:02:39;20.40;99.90
26803;DHT22;14378;51.796;5.808;2022-08-18T04:04:40;20.40;99.90
26803;DHT22;14378;51.796;5.808;2022-08-18T04:06:48;20.40;99.90
26803;DHT22;14378;51.796;5.808;2022-08-18T04:09:02;20.40;99.90
26803;DHT22;14378;51.796;5.808;2022-08-18T04:11:04;20.40;99.90
26803;DHT22;14378;51.796;5.808;2022-08-18T04:13:06;20.40;99.90
26803;DHT22;14378;51.796;5.808;2022-08-18T04:15:07;20.40;99.90
26803;DHT22;14378;51.796;5.808;2022-08-18T04:17:09;20.40;99.90
26803;DHT22;14378;51.796;5.808;2022-08-18T04:19:10;20.40;99.90
26803;DHT22;14378;51.796;5.808;2022-08-18T04:21:13;20.40;99.90
26803;DHT22;14378;51.796;5.808;2022-08-18T04:23:14;20.40;99.90
26803;DHT22;14378;51.796;5.808;2022-08-18T04:25:15;20.40;99.90
26803;DHT22;14378;51.796;5.808;2022-08-18T04:27:18;20.40;99.90
26803;DHT22;14378;51.796;5.808;2022-08-18T04:29:19;20.40;99.90
26803;DHT22;14378;51.796;5.808;2022-08-18T04:31:20;20.40;99.90
26803;DHT22;14378;51.796;5.808;2022-08-18T04:33:25;20.40;99.90
26803;DHT22;14378;51.796;5.808;2022-08-18T04:35:27;20.40;99.90
26803;DHT22;14378;51.796;5.808;2022-08-18T04:37:28;20.40;99.90
26803;DHT22;14378;51.796;5.808;2022-08-18T04:39:32;20.40;99.90
26803;DHT22;14378;51.796;5.808;2022-08-18T04:41:33;20.40;99.90
26803;DHT22;14378;51.796;5.808;2022-08-18T04:43:35;20.40;99.90
26803;DHT22;14378;51.796;5.808;2022-08-18T04:45:36;20.40;99.90
26803;DHT22;14378;51.796;5.808;2022-08-18T04:47:39;20.40;99.90
26803;DHT22;14378;51.796;5.808;2022-08-18T04:49:43;20.40;99.90
26803;DHT22;14378;51.796;5.808;2022-08-18T04:51:49;20.40;99.90
26803;DHT22;14378;51.796;5.808;2022-08-18T04:54:08;20.30;99.90
26803;DHT22;14378;51.796;5.808;2022-08-18T04:56:23;20.30;99.90
26803;DHT22;14378;51.796;5.808;2022-08-18T04:58:28;20.30;99.90
26803;DHT22;14378;51.796;5.808;2022-08-18T05:00:29;20.30;99.90
26803;DHT22;14378;51.796;5.808;2022-08-18T05:02:31;20.30;99.90
26803;DHT22;14378;51.796;5.808;2022-08-18T05:04:35;20.30;99.90
26803;DHT22;14378;51.796;5.808;2022-08-18T05:06:36;20.30;99.90
26803;DHT22;14378;51.796;5.808;2022-08-18T05:08:38;20.30;99.90
26803;DHT22;14378;51.796;5.808;2022-08-18T05:10:39;20.30;99.90
26803;DHT22;14378;51.796;5.808;2022-08-18T05:12:42;20.30;99.90
26803;DHT22;14378;51.796;5.808;2022-08-18T05:14:44;20.40;99.90
26803;DHT22;14378;51.796;5.808;2022-08-18T05:16:45;20.30;99.90
26803;DHT22;14378;51.796;5.808;2022-08-18T05:18:46;20.30;99.90
26803;DHT22;14378;51.796;5.808;2022-08-18T05:20:51;20.40;99.90
26803;DHT22;14378;51.796;5.808;2022-08-18T05:22:52;20.40;99.90
26803;DHT22;14378;51.796;5.808;2022-08-18T05:24:55;20.40;99.90
26803;DHT22;14378;51.796;5.808;2022-08-18T05:26:58;20.40;99.90
26803;DHT22;14378;51.796;5.808;2022-08-18T05:29:00;20.40;99.90
26803;DHT22;14378;51.796;5.808;2022-08-18T05:31:10;20.40;99.90
26803;DHT22;14378;51.796;5.808;2022-08-18T05:33:11;20.40;99.90
26803;DHT22;14378;51.796;5.808;2022-08-18T05:35:19;20.40;99.90
26803;DHT22;14378;51.796;5.808;2022-08-18T05:37:33;20.40;99.90
26803;DHT22;14378;51.796;5.808;2022-08-18T05:42:04;20.40;99.90
26803;DHT22;14378;51.796;5.808;2022-08-18T05:44:07;20.40;99.90
26803;DHT22;14378;51.796;5.808;2022-08-18T05:46:09;20.40;99.90
26803;DHT22;14378;51.796;5.808;2022-08-18T05:48:18;20.40;99.90
26803;DHT22;14378;51.796;5.808;2022-08-18T05:50:19;20.40;99.90
26803;DHT22;14378;51.796;5.808;2022-08-18T05:54:52;20.40;99.90
26803;DHT22;14378;51.796;5.808;2022-08-18T05:57:17;20.40;99.90
26803;DHT22;14378;51.796;5.808;2022-08-18T05:59:31;20.40;99.90
26803;DHT22;14378;51.796;5.808;2022-08-18T06:01:38;20.40;99.90
26803;DHT22;14378;51.796;5.808;2022-08-18T06:03:49;20.40;99.90
26803;DHT22;14378;51.796;5.808;2022-08-18T06:06:00;20.40;99.90
26803;DHT22;14378;51.796;5.808;2022-08-18T06:08:09;20.40;99.90
26803;DHT22;14378;51.796;5.808;2022-08-18T06:10:11;20.40;99.90
26803;DHT22;14378;51.796;5.808;2022-08-18T06:12:20;20.40;99.90
26803;DHT22;14378;51.796;5.808;2022-08-18T06:14:22;20.40;99.90
26803;DHT22;14378;51.796;5.808;2022-08-18T06:19:03;20.40;99.90
26803;DHT22;14378;51.796;5.808;2022-08-18T06:25:32;20.50;99.90
26803;DHT22;14378;51.796;5.808;2022-08-18T06:28:01;20.50;99.90
26803;DHT22;14378;51.796;5.808;2022-08-18T06:35:08;20.70;99.90
26803;DHT22;14378;51.796;5.808;2022-08-18T06:41:41;20.80;99.90
26803;DHT22;14378;51.796;5.808;2022-08-18T06:43:59;20.90;99.90
26803;DHT22;14378;51.796;5.808;2022-08-18T06:46:06;20.90;99.90
26803;DHT22;14378;51.796;5.808;2022-08-18T06:50:27;21.00;99.90
26803;DHT22;14378;51.796;5.808;2022-08-18T06:52:33;21.00;99.90
26803;DHT22;14378;51.796;5.808;2022-08-18T06:54:41;21.00;99.90
26803;DHT22;14378;51.796;5.808;2022-08-18T06:56:45;21.00;99.90
26803;DHT22;14378;51.796;5.808;2022-08-18T06:58:46;21.10;99.90
26803;DHT22;14378;51.796;5.808;2022-08-18T07:02:56;21.10;99.90
26803;DHT22;14378;51.796;5.808;2022-08-18T07:05:00;21.10;99.90
26803;DHT22;14378;51.796;5.808;2022-08-18T07:07:18;21.20;99.90
26803;DHT22;14378;51.796;5.808;2022-08-18T07:09:22;21.20;99.90
26803;DHT22;14378;51.796;5.808;2022-08-18T07:11:33;21.20;99.90
26803;DHT22;14378;51.796;5.808;2022-08-18T07:13:37;21.30;99.90
26803;DHT22;14378;51.796;5.808;2022-08-18T07:15:40;21.30;99.90
26803;DHT22;14378;51.796;5.808;2022-08-18T07:17:48;21.40;99.90
26803;DHT22;14378;51.796;5.808;2022-08-18T07:20:08;21.40;99.90
26803;DHT22;14378;51.796;5.808;2022-08-18T07:22:12;21.50;99.90
26803;DHT22;14378;51.796;5.808;2022-08-18T07:24:41;21.60;99.90
26803;DHT22;14378;51.796;5.808;2022-08-18T07:27:00;21.60;99.90
26803;DHT22;14378;51.796;5.808;2022-08-18T07:29:14;21.70;99.90
26803;DHT22;14378;51.796;5.808;2022-08-18T07:33:35;21.80;99.90
26803;DHT22;14378;51.796;5.808;2022-08-18T07:35:46;21.80;99.90
26803;DHT22;14378;51.796;5.808;2022-08-18T07:38:10;21.90;99.90
26803;DHT22;14378;51.796;5.808;2022-08-18T07:40:40;21.90;99.90
26803;DHT22;14378;51.796;5.808;2022-08-18T07:43:30;22.00;99.90
26803;DHT22;14378;51.796;5.808;2022-08-18T07:45:16;22.10;99.90
26803;DHT22;14378;51.796;5.808;2022-08-18T07:47:29;22.10;99.90
26803;DHT22;14378;51.796;5.808;2022-08-18T07:49:34;22.20;99.90
26803;DHT22;14378;51.796;5.808;2022-08-18T07:53:58;22.30;99.90
26803;DHT22;14378;51.796;5.808;2022-08-18T07:56:11;22.30;99.90
26803;DHT22;14378;51.796;5.808;2022-08-18T07:58:33;22.40;99.90
26803;DHT22;14378;51.796;5.808;2022-08-18T08:01:04;22.50;99.90
26803;DHT22;14378;51.796;5.808;2022-08-18T08:05:44;22.50;99.90
26803;DHT22;14378;51.796;5.808;2022-08-18T08:08:04;22.60;99.90
26803;DHT22;14378;51.796;5.808;2022-08-18T08:10:45;22.70;99.90
26803;DHT22;14378;51.796;5.808;2022-08-18T08:20:00;23.00;99.90
26803;DHT22;14378;51.796;5.808;2022-08-18T08:22:08;23.10;99.90
26803;DHT22;14378;51.796;5.808;2022-08-18T08:24:19;23.20;99.90
26803;DHT22;14378;51.796;5.808;2022-08-18T08:33:35;23.50;99.90
26803;DHT22;14378;51.796;5.808;2022-08-18T08:35:51;23.60;99.90
26803;DHT22;14378;51.796;5.808;2022-08-18T08:37:57;23.70;99.90
26803;DHT22;14378;51.796;5.808;2022-08-18T08:44:58;24.20;99.90
26803;DHT22;14378;51.796;5.808;2022-08-18T08:47:09;24.20;99.90
26803;DHT22;14378;51.796;5.808;2022-08-18T08:49:29;24.20;99.90
26803;DHT22;14378;51.796;5.808;2022-08-18T08:53:46;24.40;99.90
26803;DHT22;14378;51.796;5.808;2022-08-18T08:55:54;24.50;99.90
26803;DHT22;14378;51.796;5.808;2022-08-18T09:00:07;24.70;99.90
26803;DHT22;14378;51.796;5.808;2022-08-18T09:02:24;24.90;99.90
26803;DHT22;14378;51.796;5.808;2022-08-18T09:10:06;24.90;99.90
26803;DHT22;14378;51.796;5.808;2022-08-18T09:23:46;25.80;99.90
26803;DHT22;14378;51.796;5.808;2022-08-18T09:25:55;26.00;99.90
26803;DHT22;14378;51.796;5.808;2022-08-18T09:28:15;26.20;99.90
26803;DHT22;14378;51.796;5.808;2022-08-18T09:32:54;26.40;99.90
26803;DHT22;14378;51.796;5.808;2022-08-18T09:35:28;26.50;99.90
26803;DHT22;14378;51.796;5.808;2022-08-18T09:40:20;26.20;99.90
26803;DHT22;14378;51.796;5.808;2022-08-18T09:42:47;26.20;99.90
26803;DHT22;14378;51.796;5.808;2022-08-18T09:46:53;26.40;99.90
26803;DHT22;14378;51.796;5.808;2022-08-18T09:49:38;26.40;99.90
26803;DHT22;14378;51.796;5.808;2022-08-18T09:51:39;26.50;99.90
26803;DHT22;14378;51.796;5.808;2022-08-18T09:55:54;26.60;99.90
26803;DHT22;14378;51.796;5.808;2022-08-18T10:00:28;26.90;99.90
26803;DHT22;14378;51.796;5.808;2022-08-18T10:04:34;27.30;99.90
26803;DHT22;14378;51.796;5.808;2022-08-18T10:06:37;27.50;99.90
26803;DHT22;14378;51.796;5.808;2022-08-18T10:08:57;27.60;99.90
26803;DHT22;14378;51.796;5.808;2022-08-18T10:11:21;27.80;99.90
26803;DHT22;14378;51.796;5.808;2022-08-18T10:15:45;28.40;99.90
26803;DHT22;14378;51.796;5.808;2022-08-18T10:18:08;28.60;99.90
26803;DHT22;14378;51.796;5.808;2022-08-18T10:20:48;28.80;99.90
26803;DHT22;14378;51.796;5.808;2022-08-18T10:22:54;29.10;99.90
26803;DHT22;14378;51.796;5.808;2022-08-18T10:24:56;29.20;99.90
26803;DHT22;14378;51.796;5.808;2022-08-18T10:27:53;29.10;99.90
26803;DHT22;14378;51.796;5.808;2022-08-18T10:34:09;28.40;99.90
26803;DHT22;14378;51.796;5.808;2022-08-18T10:38:41;28.20;99.90
26803;DHT22;14378;51.796;5.808;2022-08-18T10:40:42;28.20;99.90
26803;DHT22;14378;51.796;5.808;2022-08-18T10:43:24;28.20;99.90
26803;DHT22;14378;51.796;5.808;2022-08-18T10:45:43;28.10;99.90
26803;DHT22;14378;51.796;5.808;2022-08-18T10:47:58;28.20;99.90
26803;DHT22;14378;51.796;5.808;2022-08-18T10:50:04;28.30;99.90
26803;DHT22;14378;51.796;5.808;2022-08-18T10:52:35;28.40;99.90
26803;DHT22;14378;51.796;5.808;2022-08-18T11:00:36;28.10;99.90
26803;DHT22;14378;51.796;5.808;2022-08-18T11:04:50;28.70;99.90
26803;DHT22;14378;51.796;5.808;2022-08-18T11:09:07;28.70;99.90
26803;DHT22;14378;51.796;5.808;2022-08-18T11:11:10;28.80;99.90
26803;DHT22;14378;51.796;5.808;2022-08-18T11:20:05;29.50;99.90
26803;DHT22;14378;51.796;5.808;2022-08-18T11:22:48;29.70;99.90
26803;DHT22;14378;51.796;5.808;2022-08-18T11:24:49;29.90;99.90
26803;DHT22;14378;51.796;5.808;2022-08-18T11:26:56;29.90;99.90
26803;DHT22;14378;51.796;5.808;2022-08-18T11:28:58;30.10;99.90
26803;DHT22;14378;51.796;5.808;2022-08-18T11:30:58;30.20;99.90
26803;DHT22;14378;51.796;5.808;2022-08-18T11:32:59;30.40;99.90
26803;DHT22;14378;51.796;5.808;2022-08-18T11:35:12;30.50;99.10
26803;DHT22;14378;51.796;5.808;2022-08-18T11:39:23;30.90;99.90
26803;DHT22;14378;51.796;5.808;2022-08-18T11:41:26;31.10;99.90
26803;DHT22;14378;51.796;5.808;2022-08-18T11:43:34;31.10;99.60
26803;DHT22;14378;51.796;5.808;2022-08-18T11:45:52;30.90;99.60
26803;DHT22;14378;51.796;5.808;2022-08-18T11:50:28;30.50;99.20
26803;DHT22;14378;51.796;5.808;2022-08-18T11:52:31;30.40;99.50
26803;DHT22;14378;51.796;5.808;2022-08-18T11:54:37;30.40;99.70
26803;DHT22;14378;51.796;5.808;2022-08-18T11:56:38;30.30;99.80
26803;DHT22;14378;51.796;5.808;2022-08-18T11:58:42;30.10;98.80
26803;DHT22;14378;51.796;5.808;2022-08-18T12:02:46;29.90;99.30
26803;DHT22;14378;51.796;5.808;2022-08-18T12:04:50;29.80;98.90
26803;DHT22;14378;51.796;5.808;2022-08-18T12:09:05;29.60;99.10
26803;DHT22;14378;51.796;5.808;2022-08-18T12:11:19;29.60;99.50
26803;DHT22;14378;51.796;5.808;2022-08-18T12:13:23;29.50;99.40
26803;DHT22;14378;51.796;5.808;2022-08-18T12:15:33;29.50;99.60
26803;DHT22;14378;51.796;5.808;2022-08-18T12:17:35;29.40;99.20
26803;DHT22;14378;51.796;5.808;2022-08-18T12:19:36;29.30;99.20
26803;DHT22;14378;51.796;5.808;2022-08-18T12:21:40;29.20;99.40
26803;DHT22;14378;51.796;5.808;2022-08-18T12:23:41;29.20;99.60
26803;DHT22;14378;51.796;5.808;2022-08-18T12:25:42;29.10;99.80
26803;DHT22;14378;51.796;5.808;2022-08-18T12:27:43;29.20;99.90
26803;DHT22;14378;51.796;5.808;2022-08-18T12:29:45;29.40;99.90
26803;DHT22;14378;51.796;5.808;2022-08-18T12:31:49;29.60;99.90
26803;DHT22;14378;51.796;5.808;2022-08-18T12:33:51;29.80;99.90
26803;DHT22;14378;51.796;5.808;2022-08-18T12:35:52;30.10;99.90
26803;DHT22;14378;51.796;5.808;2022-08-18T12:37:53;30.20;99.00
26803;DHT22;14378;51.796;5.808;2022-08-18T12:39:57;30.30;99.40
26803;DHT22;14378;51.796;5.808;2022-08-18T12:41:59;30.20;98.40
26803;DHT22;14378;51.796;5.808;2022-08-18T12:44:03;30.10;98.00
26803;DHT22;14378;51.796;5.808;2022-08-18T12:46:04;30.10;98.60
26803;DHT22;14378;51.796;5.808;2022-08-18T12:48:06;30.20;97.60
26803;DHT22;14378;51.796;5.808;2022-08-18T12:50:08;30.30;98.00
26803;DHT22;14378;51.796;5.808;2022-08-18T12:52:10;30.40;98.00
26803;DHT22;14378;51.796;5.808;2022-08-18T12:54:11;30.40;98.40
26803;DHT22;14378;51.796;5.808;2022-08-18T12:56:22;30.40;98.40
26803;DHT22;14378;51.796;5.808;2022-08-18T12:58:23;30.40;99.30
26803;DHT22;14378;51.796;5.808;2022-08-18T13:00:24;30.40;98.60
26803;DHT22;14378;51.796;5.808;2022-08-18T13:02:25;30.40;98.70
26803;DHT22;14378;51.796;5.808;2022-08-18T13:04:27;30.40;98.50
26803;DHT22;14378;51.796;5.808;2022-08-18T13:06:30;30.30;98.40
26803;DHT22;14378;51.796;5.808;2022-08-18T13:08:33;30.20;98.70
26803;DHT22;14378;51.796;5.808;2022-08-18T13:10:34;30.10;98.20
26803;DHT22;14378;51.796;5.808;2022-08-18T13:12:35;30.00;98.50
26803;DHT22;14378;51.796;5.808;2022-08-18T13:14:37;29.90;98.60
26803;DHT22;14378;51.796;5.808;2022-08-18T13:16:40;29.90;99.30
26803;DHT22;14378;51.796;5.808;2022-08-18T13:18:42;29.80;99.60
26803;DHT22;14378;51.796;5.808;2022-08-18T13:20:43;29.60;99.90
26803;DHT22;14378;51.796;5.808;2022-08-18T13:22:44;29.50;99.90
26803;DHT22;14378;51.796;5.808;2022-08-18T13:24:45;29.40;99.90
26803;DHT22;14378;51.796;5.808;2022-08-18T13:26:47;29.30;99.90
26803;DHT22;14378;51.796;5.808;2022-08-18T13:28:48;29.20;99.90
26803;DHT22;14378;51.796;5.808;2022-08-18T13:30:49;29.20;99.80
26803;DHT22;14378;51.796;5.808;2022-08-18T13:32:50;29.30;99.90
26803;DHT22;14378;51.796;5.808;2022-08-18T13:34:52;29.30;99.90
26803;DHT22;14378;51.796;5.808;2022-08-18T13:36:53;29.30;99.90
26803;DHT22;14378;51.796;5.808;2022-08-18T13:38:54;29.30;99.90
26803;DHT22;14378;51.796;5.808;2022-08-18T13:40:58;29.30;99.90
26803;DHT22;14378;51.796;5.808;2022-08-18T13:43:00;29.30;99.90
26803;DHT22;14378;51.796;5.808;2022-08-18T13:45:01;29.30;99.90
26803;DHT22;14378;51.796;5.808;2022-08-18T13:47:03;29.20;99.90
26803;DHT22;14378;51.796;5.808;2022-08-18T13:49:04;29.10;99.90
26803;DHT22;14378;51.796;5.808;2022-08-18T13:51:07;29.10;99.90
26803;DHT22;14378;51.796;5.808;2022-08-18T13:53:16;29.00;99.90
26803;DHT22;14378;51.796;5.808;2022-08-18T13:55:21;28.90;99.90
26803;DHT22;14378;51.796;5.808;2022-08-18T13:57:23;28.80;99.70
26803;DHT22;14378;51.796;5.808;2022-08-18T13:59:24;28.70;99.20
26803;DHT22;14378;51.796;5.808;2022-08-18T14:01:26;28.60;99.90
26803;DHT22;14378;51.796;5.808;2022-08-18T14:03:28;28.50;99.90
26803;DHT22;14378;51.796;5.808;2022-08-18T14:05:29;28.50;99.90
26803;DHT22;14378;51.796;5.808;2022-08-18T14:07:31;28.50;99.90
26803;DHT22;14378;51.796;5.808;2022-08-18T14:09:33;28.50;99.90
26803;DHT22;14378;51.796;5.808;2022-08-18T14:11:36;28.50;99.90
26803;DHT22;14378;51.796;5.808;2022-08-18T14:13:37;28.50;99.90
26803;DHT22;14378;51.796;5.808;2022-08-18T14:15:38;28.50;99.90
26803;DHT22;14378;51.796;5.808;2022-08-18T14:17:40;28.50;99.90
26803;DHT22;14378;51.796;5.808;2022-08-18T14:19:41;28.50;99.90
26803;DHT22;14378;51.796;5.808;2022-08-18T14:22:02;28.60;99.90
26803;DHT22;14378;51.796;5.808;2022-08-18T14:24:21;28.70;99.90
26803;DHT22;14378;51.796;5.808;2022-08-18T14:26:41;28.80;99.90
26803;DHT22;14378;51.796;5.808;2022-08-18T14:28:48;28.70;99.90
26803;DHT22;14378;51.796;5.808;2022-08-18T14:30:50;28.80;99.90
26803;DHT22;14378;51.796;5.808;2022-08-18T14:32:51;28.90;99.90
26803;DHT22;14378;51.796;5.808;2022-08-18T14:34:57;28.90;99.90
26803;DHT22;14378;51.796;5.808;2022-08-18T14:36:58;28.90;99.90
26803;DHT22;14378;51.796;5.808;2022-08-18T14:39:02;29.00;99.90
26803;DHT22;14378;51.796;5.808;2022-08-18T14:41:08;29.00;99.90
26803;DHT22;14378;51.796;5.808;2022-08-18T14:43:11;29.00;99.90
26803;DHT22;14378;51.796;5.808;2022-08-18T14:45:13;29.00;98.30
26803;DHT22;14378;51.796;5.808;2022-08-18T14:47:15;28.90;99.00
26803;DHT22;14378;51.796;5.808;2022-08-18T14:49:16;28.90;99.90
26803;DHT22;14378;51.796;5.808;2022-08-18T14:51:17;28.80;99.50
26803;DHT22;14378;51.796;5.808;2022-08-18T14:53:19;28.70;99.60
26803;DHT22;14378;51.796;5.808;2022-08-18T14:55:20;28.60;99.90
26803;DHT22;14378;51.796;5.808;2022-08-18T14:57:24;28.60;99.80
26803;DHT22;14378;51.796;5.808;2022-08-18T14:59:27;28.50;99.50
26803;DHT22;14378;51.796;5.808;2022-08-18T15:01:31;28.50;99.90
26803;DHT22;14378;51.796;5.808;2022-08-18T15:03:32;28.50;99.90
26803;DHT22;14378;51.796;5.808;2022-08-18T15:05:33;28.50;99.90
26803;DHT22;14378;51.796;5.808;2022-08-18T15:07:35;28.40;99.50
26803;DHT22;14378;51.796;5.808;2022-08-18T15:09:39;28.40;99.70
26803;DHT22;14378;51.796;5.808;2022-08-18T15:11:40;28.40;99.40
26803;DHT22;14378;51.796;5.808;2022-08-18T15:13:42;28.40;98.60
26803;DHT22;14378;51.796;5.808;2022-08-18T15:15:43;28.40;98.90
26803;DHT22;14378;51.796;5.808;2022-08-18T15:17:45;28.30;99.00
26803;DHT22;14378;51.796;5.808;2022-08-18T15:19:46;28.30;98.90
26803;DHT22;14378;51.796;5.808;2022-08-18T15:21:50;28.20;98.00
26803;DHT22;14378;51.796;5.808;2022-08-18T15:24:10;28.10;98.70
26803;DHT22;14378;51.796;5.808;2022-08-18T15:26:29;28.00;99.40